sensor_id;sensor_type;location;lat;lon;timestamp;P1;durP1;ratioP1;P2;durP2;ratioP2
69081;SDS011;56184;51.986;5.760;2023-02-24T00:02:22;4.78;;;1.20;;
69081;SDS011;56184;51.986;5.760;2023-02-24T00:04:48;7.30;;;1.50;;
69081;SDS011;56184;51.986;5.760;2023-02-24T00:07:17;5.00;;;1.20;;
69081;SDS011;56184;51.986;5.760;2023-02-24T00:09:43;3.22;;;1.08;;
69081;SDS011;56184;51.986;5.760;2023-02-24T00:12:12;2.60;;;1.20;;
69081;SDS011;56184;51.986;5.760;2023-02-24T00:14:41;3.20;;;1.15;;
69081;SDS011;56184;51.986;5.760;2023-02-24T00:17:08;1.70;;;1.15;;
69081;SDS011;56184;51.986;5.760;2023-02-24T00:19:36;3.30;;;1.40;;
69081;SDS011;56184;51.986;5.760;2023-02-24T00:22:03;8.10;;;1.40;;
69081;SDS011;56184;51.986;5.760;2023-02-24T00:24:30;3.65;;;1.60;;
69081;SDS011;56184;51.986;5.760;2023-02-24T00:26:57;4.43;;;1.70;;
69081;SDS011;56184;51.986;5.760;2023-02-24T00:29:25;4.55;;;1.65;;
69081;SDS011;56184;51.986;5.760;2023-02-24T00:31:53;6.95;;;1.70;;
69081;SDS011;56184;51.986;5.760;2023-02-24T00:34:28;7.85;;;1.67;;
69081;SDS011;56184;51.986;5.760;2023-02-24T00:36:58;10.43;;;2.28;;
69081;SDS011;56184;51.986;5.760;2023-02-24T00:39:24;6.78;;;1.90;;
69081;SDS011;56184;51.986;5.760;2023-02-24T00:42:00;2.97;;;1.45;;
69081;SDS011;56184;51.986;5.760;2023-02-24T00:44:30;10.43;;;1.88;;
69081;SDS011;56184;51.986;5.760;2023-02-24T00:47:02;6.68;;;1.67;;
69081;SDS011;56184;51.986;5.760;2023-02-24T00:49:29;5.25;;;1.25;;
69081;SDS011;56184;51.986;5.760;2023-02-24T00:51:56;8.57;;;1.70;;
69081;SDS011;56184;51.986;5.760;2023-02-24T00:54:22;4.25;;;1.70;;
69081;SDS011;56184;51.986;5.760;2023-02-24T00:56:52;8.05;;;1.52;;
69081;SDS011;56184;51.986;5.760;2023-02-24T00:59:18;3.35;;;1.55;;
69081;SDS011;56184;51.986;5.760;2023-02-24T01:01:46;7.32;;;1.48;;
69081;SDS011;56184;51.986;5.760;2023-02-24T01:04:14;8.43;;;1.90;;
69081;SDS011;56184;51.986;5.760;2023-02-24T01:06:44;16.80;;;1.63;;
69081;SDS011;56184;51.986;5.760;2023-02-24T01:09:12;8.45;;;2.03;;
69081;SDS011;56184;51.986;5.760;2023-02-24T01:11:41;9.35;;;2.47;;
69081;SDS011;56184;51.986;5.760;2023-02-24T01:14:47;8.45;;;2.17;;
69081;SDS011;56184;51.986;5.760;2023-02-24T01:17:14;6.50;;;2.08;;
69081;SDS011;56184;51.986;5.760;2023-02-24T01:19:42;7.63;;;2.10;;
69081;SDS011;56184;51.986;5.760;2023-02-24T01:22:10;7.95;;;2.10;;
69081;SDS011;56184;51.986;5.760;2023-02-24T01:24:39;6.07;;;2.10;;
69081;SDS011;56184;51.986;5.760;2023-02-24T01:27:06;7.60;;;2.55;;
69081;SDS011;56184;51.986;5.760;2023-02-24T01:29:32;9.88;;;2.58;;
69081;SDS011;56184;51.986;5.760;2023-02-24T01:32:03;8.18;;;2.58;;
69081;SDS011;56184;51.986;5.760;2023-02-24T01:34:30;12.20;;;2.88;;
69081;SDS011;56184;51.986;5.760;2023-02-24T01:36:56;8.20;;;2.30;;
69081;SDS011;56184;51.986;5.760;2023-02-24T01:39:22;6.93;;;2.30;;
69081;SDS011;56184;51.986;5.760;2023-02-24T01:41:49;10.30;;;2.63;;
69081;SDS011;56184;51.986;5.760;2023-02-24T01:46:46;9.30;;;3.17;;
69081;SDS011;56184;51.986;5.760;2023-02-24T01:49:14;11.50;;;3.38;;
69081;SDS011;56184;51.986;5.760;2023-02-24T01:51:46;9.40;;;2.65;;
69081;SDS011;56184;51.986;5.760;2023-02-24T01:54:18;14.15;;;3.25;;
69081;SDS011;56184;51.986;5.760;2023-02-24T01:56:48;10.65;;;2.65;;
69081;SDS011;56184;51.986;5.760;2023-02-24T01:59:16;8.43;;;2.58;;
69081;SDS011;56184;51.986;5.760;2023-02-24T02:01:43;17.17;;;2.90;;
69081;SDS011;56184;51.986;5.760;2023-02-24T02:04:27;9.27;;;2.97;;
69081;SDS011;56184;51.986;5.760;2023-02-24T02:06:59;6.28;;;2.30;;
69081;SDS011;56184;51.986;5.760;2023-02-24T02:09:26;9.05;;;3.33;;
69081;SDS011;56184;51.986;5.760;2023-02-24T02:11:52;12.98;;;3.10;;
69081;SDS011;56184;51.986;5.760;2023-02-24T02:14:19;14.88;;;2.85;;
69081;SDS011;56184;51.986;5.760;2023-02-24T02:25:47;9.23;;;2.70;;
69081;SDS011;56184;51.986;5.760;2023-02-24T02:40:08;14.45;;;2.97;;
69081;SDS011;56184;51.986;5.760;2023-02-24T02:42:46;10.65;;;2.78;;
69081;SDS011;56184;51.986;5.760;2023-02-24T02:45:23;13.82;;;2.70;;
69081;SDS011;56184;51.986;5.760;2023-02-24T02:48:22;10.88;;;2.60;;
69081;SDS011;56184;51.986;5.760;2023-02-24T02:51:08;8.13;;;2.40;;
69081;SDS011;56184;51.986;5.760;2023-02-24T02:53:51;13.70;;;2.55;;
69081;SDS011;56184;51.986;5.760;2023-02-24T02:56:49;9.43;;;2.97;;
69081;SDS011;56184;51.986;5.760;2023-02-24T02:59:21;7.75;;;2.63;;
69081;SDS011;56184;51.986;5.760;2023-02-24T03:01:49;12.93;;;2.80;;
69081;SDS011;56184;51.986;5.760;2023-02-24T03:04:19;7.30;;;2.88;;
69081;SDS011;56184;51.986;5.760;2023-02-24T03:06:55;10.07;;;3.00;;
69081;SDS011;56184;51.986;5.760;2023-02-24T03:09:26;13.50;;;2.67;;
69081;SDS011;56184;51.986;5.760;2023-02-24T03:12:00;11.68;;;2.90;;
69081;SDS011;56184;51.986;5.760;2023-02-24T03:14:32;11.68;;;3.20;;
69081;SDS011;56184;51.986;5.760;2023-02-24T03:17:02;7.90;;;2.70;;
69081;SDS011;56184;51.986;5.760;2023-02-24T03:19:33;11.05;;;3.60;;
69081;SDS011;56184;51.986;5.760;2023-02-24T03:22:11;8.93;;;3.33;;
69081;SDS011;56184;51.986;5.760;2023-02-24T03:24:40;9.85;;;3.00;;
69081;SDS011;56184;51.986;5.760;2023-02-24T03:29:59;12.98;;;3.58;;
69081;SDS011;56184;51.986;5.760;2023-02-24T03:32:34;10.55;;;3.10;;
69081;SDS011;56184;51.986;5.760;2023-02-24T03:35:18;14.25;;;3.25;;
69081;SDS011;56184;51.986;5.760;2023-02-24T03:37:52;17.63;;;3.25;;
69081;SDS011;56184;51.986;5.760;2023-02-24T03:40:21;11.90;;;3.08;;
69081;SDS011;56184;51.986;5.760;2023-02-24T03:42:56;12.10;;;3.50;;
69081;SDS011;56184;51.986;5.760;2023-02-24T03:45:30;14.93;;;3.30;;
69081;SDS011;56184;51.986;5.760;2023-02-24T03:47:59;11.27;;;3.33;;
69081;SDS011;56184;51.986;5.760;2023-02-24T03:50:27;7.65;;;2.38;;
69081;SDS011;56184;51.986;5.760;2023-02-24T03:53:02;11.70;;;2.67;;
69081;SDS011;56184;51.986;5.760;2023-02-24T04:01:25;12.05;;;2.40;;
69081;SDS011;56184;51.986;5.760;2023-02-24T04:03:58;8.45;;;2.85;;
69081;SDS011;56184;51.986;5.760;2023-02-24T04:12:08;10.82;;;2.55;;
69081;SDS011;56184;51.986;5.760;2023-02-24T04:17:31;11.32;;;2.63;;
69081;SDS011;56184;51.986;5.760;2023-02-24T04:20:04;15.02;;;2.63;;
69081;SDS011;56184;51.986;5.760;2023-02-24T04:22:45;15.85;;;2.20;;
69081;SDS011;56184;51.986;5.760;2023-02-24T04:25:15;13.75;;;2.67;;
69081;SDS011;56184;51.986;5.760;2023-02-24T04:27:43;9.93;;;2.67;;
69081;SDS011;56184;51.986;5.760;2023-02-24T04:30:12;12.90;;;2.83;;
69081;SDS011;56184;51.986;5.760;2023-02-24T04:32:38;12.68;;;2.70;;
69081;SDS011;56184;51.986;5.760;2023-02-24T04:35:07;11.68;;;2.42;;
69081;SDS011;56184;51.986;5.760;2023-02-24T04:37:36;16.58;;;2.22;;
69081;SDS011;56184;51.986;5.760;2023-02-24T04:40:12;16.35;;;2.63;;
69081;SDS011;56184;51.986;5.760;2023-02-24T04:42:52;15.52;;;3.10;;
69081;SDS011;56184;51.986;5.760;2023-02-24T04:45:19;12.43;;;2.28;;
69081;SDS011;56184;51.986;5.760;2023-02-24T04:47:47;14.85;;;2.95;;
69081;SDS011;56184;51.986;5.760;2023-02-24T04:50:15;10.35;;;2.10;;
69081;SDS011;56184;51.986;5.760;2023-02-24T04:52:50;6.80;;;2.00;;
69081;SDS011;56184;51.986;5.760;2023-02-24T04:55:18;22.65;;;3.15;;
69081;SDS011;56184;51.986;5.760;2023-02-24T04:57:47;8.77;;;2.50;;
69081;SDS011;56184;51.986;5.760;2023-02-24T05:00:13;9.55;;;2.80;;
69081;SDS011;56184;51.986;5.760;2023-02-24T05:02:54;11.90;;;2.58;;
69081;SDS011;56184;51.986;5.760;2023-02-24T05:05:21;11.23;;;2.30;;
69081;SDS011;56184;51.986;5.760;2023-02-24T05:07:50;15.82;;;2.50;;
69081;SDS011;56184;51.986;5.760;2023-02-24T05:10:16;11.32;;;2.08;;
69081;SDS011;56184;51.986;5.760;2023-02-24T05:12:46;10.27;;;2.70;;
69081;SDS011;56184;51.986;5.760;2023-02-24T05:15:12;8.75;;;2.35;;
69081;SDS011;56184;51.986;5.760;2023-02-24T05:17:37;11.18;;;2.40;;
69081;SDS011;56184;51.986;5.760;2023-02-24T05:20:05;11.10;;;2.42;;
69081;SDS011;56184;51.986;5.760;2023-02-24T05:22:50;6.05;;;2.30;;
69081;SDS011;56184;51.986;5.760;2023-02-24T05:25:16;14.65;;;2.88;;
69081;SDS011;56184;51.986;5.760;2023-02-24T05:27:42;10.80;;;2.42;;
69081;SDS011;56184;51.986;5.760;2023-02-24T05:30:08;18.42;;;3.28;;
69081;SDS011;56184;51.986;5.760;2023-02-24T05:32:36;12.18;;;2.83;;
69081;SDS011;56184;51.986;5.760;2023-02-24T05:35:02;12.35;;;2.88;;
69081;SDS011;56184;51.986;5.760;2023-02-24T05:37:29;11.90;;;2.50;;
69081;SDS011;56184;51.986;5.760;2023-02-24T05:39:55;10.15;;;3.35;;
69081;SDS011;56184;51.986;5.760;2023-02-24T05:42:24;10.10;;;2.50;;
69081;SDS011;56184;51.986;5.760;2023-02-24T05:44:51;15.23;;;3.10;;
69081;SDS011;56184;51.986;5.760;2023-02-24T05:47:17;9.63;;;2.78;;
69081;SDS011;56184;51.986;5.760;2023-02-24T05:49:43;15.30;;;2.95;;
69081;SDS011;56184;51.986;5.760;2023-02-24T05:52:11;13.77;;;3.15;;
69081;SDS011;56184;51.986;5.760;2023-02-24T05:54:41;16.60;;;2.97;;
69081;SDS011;56184;51.986;5.760;2023-02-24T05:57:11;16.02;;;2.97;;
69081;SDS011;56184;51.986;5.760;2023-02-24T05:59:41;19.63;;;3.35;;
69081;SDS011;56184;51.986;5.760;2023-02-24T06:02:08;18.30;;;3.00;;
69081;SDS011;56184;51.986;5.760;2023-02-24T06:04:36;8.65;;;2.58;;
69081;SDS011;56184;51.986;5.760;2023-02-24T06:07:04;15.63;;;2.63;;
69081;SDS011;56184;51.986;5.760;2023-02-24T06:09:37;12.52;;;2.80;;
69081;SDS011;56184;51.986;5.760;2023-02-24T06:12:06;9.68;;;2.90;;
69081;SDS011;56184;51.986;5.760;2023-02-24T06:14:33;9.15;;;2.60;;
69081;SDS011;56184;51.986;5.760;2023-02-24T06:16:58;9.13;;;2.85;;
69081;SDS011;56184;51.986;5.760;2023-02-24T06:19:27;12.55;;;3.08;;
69081;SDS011;56184;51.986;5.760;2023-02-24T06:21:56;14.18;;;2.85;;
69081;SDS011;56184;51.986;5.760;2023-02-24T06:24:25;17.63;;;3.20;;
69081;SDS011;56184;51.986;5.760;2023-02-24T06:26:56;14.43;;;3.40;;
69081;SDS011;56184;51.986;5.760;2023-02-24T06:29:26;13.10;;;3.78;;
69081;SDS011;56184;51.986;5.760;2023-02-24T06:31:54;11.27;;;2.70;;
69081;SDS011;56184;51.986;5.760;2023-02-24T06:34:23;12.10;;;3.20;;
69081;SDS011;56184;51.986;5.760;2023-02-24T06:36:51;9.60;;;2.75;;
69081;SDS011;56184;51.986;5.760;2023-02-24T06:39:17;13.10;;;2.95;;
69081;SDS011;56184;51.986;5.760;2023-02-24T06:41:43;14.48;;;2.90;;
69081;SDS011;56184;51.986;5.760;2023-02-24T06:44:09;10.93;;;2.70;;
69081;SDS011;56184;51.986;5.760;2023-02-24T06:46:35;12.70;;;2.85;;
69081;SDS011;56184;51.986;5.760;2023-02-24T06:49:01;9.25;;;2.42;;
69081;SDS011;56184;51.986;5.760;2023-02-24T06:51:27;10.00;;;2.92;;
69081;SDS011;56184;51.986;5.760;2023-02-24T06:53:54;13.57;;;2.78;;
69081;SDS011;56184;51.986;5.760;2023-02-24T06:56:23;10.35;;;2.92;;
69081;SDS011;56184;51.986;5.760;2023-02-24T06:58:51;19.98;;;2.90;;
69081;SDS011;56184;51.986;5.760;2023-02-24T07:01:20;20.90;;;2.97;;
69081;SDS011;56184;51.986;5.760;2023-02-24T07:03:51;20.13;;;2.92;;
69081;SDS011;56184;51.986;5.760;2023-02-24T07:06:45;13.23;;;2.40;;
69081;SDS011;56184;51.986;5.760;2023-02-24T07:09:15;8.07;;;2.33;;
69081;SDS011;56184;51.986;5.760;2023-02-24T07:11:43;7.40;;;2.30;;
69081;SDS011;56184;51.986;5.760;2023-02-24T07:14:15;13.90;;;2.63;;
69081;SDS011;56184;51.986;5.760;2023-02-24T07:16:41;16.00;;;2.30;;
69081;SDS011;56184;51.986;5.760;2023-02-24T07:19:10;7.53;;;2.30;;
69081;SDS011;56184;51.986;5.760;2023-02-24T07:21:38;11.20;;;2.72;;
69081;SDS011;56184;51.986;5.760;2023-02-24T07:24:07;7.20;;;2.28;;
69081;SDS011;56184;51.986;5.760;2023-02-24T07:26:37;20.95;;;2.83;;
69081;SDS011;56184;51.986;5.760;2023-02-24T07:29:06;8.13;;;2.47;;
69081;SDS011;56184;51.986;5.760;2023-02-24T07:31:35;15.35;;;2.70;;
69081;SDS011;56184;51.986;5.760;2023-02-24T07:34:01;14.60;;;2.50;;
69081;SDS011;56184;51.986;5.760;2023-02-24T07:36:28;10.32;;;2.95;;
69081;SDS011;56184;51.986;5.760;2023-02-24T07:38:55;8.80;;;2.20;;
69081;SDS011;56184;51.986;5.760;2023-02-24T07:41:23;9.63;;;2.45;;
69081;SDS011;56184;51.986;5.760;2023-02-24T07:43:51;11.50;;;2.05;;
69081;SDS011;56184;51.986;5.760;2023-02-24T07:46:19;10.60;;;2.30;;
69081;SDS011;56184;51.986;5.760;2023-02-24T07:48:49;8.35;;;1.77;;
69081;SDS011;56184;51.986;5.760;2023-02-24T07:51:17;11.10;;;2.28;;
69081;SDS011;56184;51.986;5.760;2023-02-24T07:53:53;16.73;;;2.30;;
69081;SDS011;56184;51.986;5.760;2023-02-24T07:56:24;16.02;;;2.45;;
69081;SDS011;56184;51.986;5.760;2023-02-24T07:58:52;4.82;;;1.52;;
69081;SDS011;56184;51.986;5.760;2023-02-24T08:01:23;13.40;;;2.40;;
69081;SDS011;56184;51.986;5.760;2023-02-24T08:03:52;12.93;;;2.05;;
69081;SDS011;56184;51.986;5.760;2023-02-24T08:06:25;6.38;;;1.95;;
69081;SDS011;56184;51.986;5.760;2023-02-24T08:09:02;12.73;;;2.33;;
69081;SDS011;56184;51.986;5.760;2023-02-24T08:11:53;10.23;;;2.10;;
69081;SDS011;56184;51.986;5.760;2023-02-24T08:14:21;8.27;;;2.10;;
69081;SDS011;56184;51.986;5.760;2023-02-24T08:16:52;12.57;;;2.10;;
69081;SDS011;56184;51.986;5.760;2023-02-24T08:19:27;10.30;;;2.22;;
69081;SDS011;56184;51.986;5.760;2023-02-24T08:22:03;9.23;;;2.10;;
69081;SDS011;56184;51.986;5.760;2023-02-24T08:24:52;5.70;;;1.80;;
69081;SDS011;56184;51.986;5.760;2023-02-24T08:27:20;5.80;;;1.90;;
69081;SDS011;56184;51.986;5.760;2023-02-24T08:29:48;12.15;;;2.10;;
69081;SDS011;56184;51.986;5.760;2023-02-24T08:32:31;12.00;;;2.60;;
69081;SDS011;56184;51.986;5.760;2023-02-24T08:35:08;9.90;;;2.50;;
69081;SDS011;56184;51.986;5.760;2023-02-24T08:37:43;9.80;;;2.15;;
69081;SDS011;56184;51.986;5.760;2023-02-24T08:40:21;13.25;;;2.17;;
69081;SDS011;56184;51.986;5.760;2023-02-24T08:43:02;15.57;;;2.40;;
69081;SDS011;56184;51.986;5.760;2023-02-24T08:45:41;15.57;;;2.65;;
69081;SDS011;56184;51.986;5.760;2023-02-24T08:48:09;12.52;;;2.85;;
69081;SDS011;56184;51.986;5.760;2023-02-24T08:50:51;12.95;;;2.65;;
69081;SDS011;56184;51.986;5.760;2023-02-24T08:53:22;14.05;;;2.25;;
69081;SDS011;56184;51.986;5.760;2023-02-24T08:55:53;15.38;;;2.35;;
69081;SDS011;56184;51.986;5.760;2023-02-24T08:58:23;17.42;;;2.22;;
69081;SDS011;56184;51.986;5.760;2023-02-24T09:00:52;7.20;;;2.03;;
69081;SDS011;56184;51.986;5.760;2023-02-24T09:03:22;10.75;;;2.30;;
69081;SDS011;56184;51.986;5.760;2023-02-24T09:06:05;11.23;;;1.77;;
69081;SDS011;56184;51.986;5.760;2023-02-24T09:08:33;8.38;;;2.22;;
69081;SDS011;56184;51.986;5.760;2023-02-24T09:11:03;15.48;;;2.08;;
69081;SDS011;56184;51.986;5.760;2023-02-24T09:13:42;6.40;;;1.70;;
69081;SDS011;56184;51.986;5.760;2023-02-24T09:16:22;13.65;;;2.25;;
69081;SDS011;56184;51.986;5.760;2023-02-24T09:18:49;8.55;;;1.90;;
69081;SDS011;56184;51.986;5.760;2023-02-24T09:21:34;9.35;;;2.30;;
69081;SDS011;56184;51.986;5.760;2023-02-24T09:24:12;10.52;;;1.85;;
69081;SDS011;56184;51.986;5.760;2023-02-24T09:26:37;8.25;;;1.85;;
69081;SDS011;56184;51.986;5.760;2023-02-24T09:29:12;8.50;;;2.17;;
69081;SDS011;56184;51.986;5.760;2023-02-24T09:31:56;16.38;;;2.33;;
69081;SDS011;56184;51.986;5.760;2023-02-24T09:34:35;10.77;;;2.00;;
69081;SDS011;56184;51.986;5.760;2023-02-24T09:37:08;14.30;;;2.22;;
69081;SDS011;56184;51.986;5.760;2023-02-24T09:39:48;15.00;;;2.20;;
69081;SDS011;56184;51.986;5.760;2023-02-24T09:42:19;12.18;;;2.17;;
69081;SDS011;56184;51.986;5.760;2023-02-24T09:44:46;8.82;;;2.13;;
69081;SDS011;56184;51.986;5.760;2023-02-24T09:47:22;8.55;;;2.22;;
69081;SDS011;56184;51.986;5.760;2023-02-24T09:52:47;10.95;;;2.25;;
69081;SDS011;56184;51.986;5.760;2023-02-24T10:01:03;9.38;;;2.25;;
69081;SDS011;56184;51.986;5.760;2023-02-24T10:09:16;14.23;;;2.13;;
69081;SDS011;56184;51.986;5.760;2023-02-24T10:12:17;10.57;;;2.33;;
69081;SDS011;56184;51.986;5.760;2023-02-24T10:17:40;11.55;;;2.28;;
69081;SDS011;56184;51.986;5.760;2023-02-24T10:20:19;10.18;;;2.47;;
69081;SDS011;56184;51.986;5.760;2023-02-24T10:23:35;12.35;;;2.25;;
69081;SDS011;56184;51.986;5.760;2023-02-24T10:26:22;14.68;;;2.88;;
69081;SDS011;56184;51.986;5.760;2023-02-24T10:35:07;12.48;;;2.10;;
69081;SDS011;56184;51.986;5.760;2023-02-24T10:37:40;8.75;;;3.10;;
69081;SDS011;56184;51.986;5.760;2023-02-24T10:40:06;15.38;;;2.80;;
69081;SDS011;56184;51.986;5.760;2023-02-24T10:42:41;11.27;;;3.00;;
69081;SDS011;56184;51.986;5.760;2023-02-24T10:45:13;9.20;;;2.67;;
69081;SDS011;56184;51.986;5.760;2023-02-24T10:47:50;11.27;;;3.10;;
69081;SDS011;56184;51.986;5.760;2023-02-24T10:50:27;17.88;;;3.35;;
69081;SDS011;56184;51.986;5.760;2023-02-24T10:53:05;19.63;;;3.40;;
69081;SDS011;56184;51.986;5.760;2023-02-24T11:00:53;12.27;;;3.43;;
69081;SDS011;56184;51.986;5.760;2023-02-24T11:03:58;10.38;;;3.45;;
69081;SDS011;56184;51.986;5.760;2023-02-24T11:06:29;9.13;;;3.40;;
69081;SDS011;56184;51.986;5.760;2023-02-24T11:09:06;16.42;;;3.72;;
69081;SDS011;56184;51.986;5.760;2023-02-24T11:11:51;11.50;;;3.35;;
69081;SDS011;56184;51.986;5.760;2023-02-24T11:14:53;13.43;;;3.65;;
69081;SDS011;56184;51.986;5.760;2023-02-24T11:20:23;12.77;;;3.85;;
69081;SDS011;56184;51.986;5.760;2023-02-24T11:23:03;10.88;;;3.45;;
69081;SDS011;56184;51.986;5.760;2023-02-24T11:31:14;20.47;;;4.37;;
69081;SDS011;56184;51.986;5.760;2023-02-24T11:34:05;18.30;;;5.05;;
69081;SDS011;56184;51.986;5.760;2023-02-24T11:41:58;15.55;;;4.22;;
69081;SDS011;56184;51.986;5.760;2023-02-24T11:44:34;21.58;;;4.95;;
69081;SDS011;56184;51.986;5.760;2023-02-24T11:47:09;10.73;;;4.57;;
69081;SDS011;56184;51.986;5.760;2023-02-24T11:49:44;13.40;;;4.53;;
69081;SDS011;56184;51.986;5.760;2023-02-24T11:52:21;11.95;;;4.20;;
69081;SDS011;56184;51.986;5.760;2023-02-24T11:54:52;17.73;;;6.10;;
69081;SDS011;56184;51.986;5.760;2023-02-24T11:57:27;11.98;;;4.90;;
69081;SDS011;56184;51.986;5.760;2023-02-24T12:00:18;15.32;;;4.75;;
69081;SDS011;56184;51.986;5.760;2023-02-24T12:02:49;14.88;;;5.60;;
69081;SDS011;56184;51.986;5.760;2023-02-24T12:05:41;10.25;;;4.68;;
69081;SDS011;56184;51.986;5.760;2023-02-24T12:08:32;7.65;;;4.40;;
69081;SDS011;56184;51.986;5.760;2023-02-24T12:11:04;15.70;;;4.70;;
69081;SDS011;56184;51.986;5.760;2023-02-24T12:13:38;12.27;;;4.40;;
69081;SDS011;56184;51.986;5.760;2023-02-24T12:16:12;15.20;;;4.70;;
69081;SDS011;56184;51.986;5.760;2023-02-24T12:18:43;14.13;;;5.35;;
69081;SDS011;56184;51.986;5.760;2023-02-24T12:21:17;10.55;;;5.03;;
69081;SDS011;56184;51.986;5.760;2023-02-24T12:23:53;8.32;;;5.07;;
69081;SDS011;56184;51.986;5.760;2023-02-24T12:26:25;12.75;;;4.95;;
69081;SDS011;56184;51.986;5.760;2023-02-24T12:37:16;9.95;;;4.85;;
69081;SDS011;56184;51.986;5.760;2023-02-24T12:40:23;8.75;;;4.57;;
69081;SDS011;56184;51.986;5.760;2023-02-24T12:51:03;10.65;;;5.75;;
69081;SDS011;56184;51.986;5.760;2023-02-24T12:59:05;11.90;;;4.75;;
69081;SDS011;56184;51.986;5.760;2023-02-24T13:01:40;8.55;;;4.50;;
69081;SDS011;56184;51.986;5.760;2023-02-24T13:15:25;10.88;;;4.20;;
69081;SDS011;56184;51.986;5.760;2023-02-24T13:17:53;10.63;;;3.95;;
69081;SDS011;56184;51.986;5.760;2023-02-24T13:23:02;14.13;;;4.15;;
69081;SDS011;56184;51.986;5.760;2023-02-24T13:25:48;12.60;;;4.00;;
69081;SDS011;56184;51.986;5.760;2023-02-24T13:28:25;15.98;;;5.25;;
69081;SDS011;56184;51.986;5.760;2023-02-24T13:31:07;10.32;;;4.00;;
69081;SDS011;56184;51.986;5.760;2023-02-24T13:33:37;15.57;;;5.97;;
69081;SDS011;56184;51.986;5.760;2023-02-24T13:36:12;13.10;;;4.65;;
69081;SDS011;56184;51.986;5.760;2023-02-24T13:43:55;12.57;;;5.25;;
69081;SDS011;56184;51.986;5.760;2023-02-24T13:46:27;18.45;;;4.43;;
69081;SDS011;56184;51.986;5.760;2023-02-24T13:49:20;11.85;;;4.25;;
69081;SDS011;56184;51.986;5.760;2023-02-24T13:51:52;21.63;;;4.57;;
69081;SDS011;56184;51.986;5.760;2023-02-24T13:57:21;13.82;;;3.38;;
69081;SDS011;56184;51.986;5.760;2023-02-24T14:00:06;9.77;;;2.92;;
69081;SDS011;56184;51.986;5.760;2023-02-24T14:02:53;21.35;;;3.85;;
69081;SDS011;56184;51.986;5.760;2023-02-24T14:05:21;18.25;;;3.47;;
69081;SDS011;56184;51.986;5.760;2023-02-24T14:07:50;20.38;;;3.88;;
69081;SDS011;56184;51.986;5.760;2023-02-24T14:12:49;12.63;;;2.70;;
69081;SDS011;56184;51.986;5.760;2023-02-24T14:15:24;16.63;;;5.20;;
69081;SDS011;56184;51.986;5.760;2023-02-24T14:17:58;7.43;;;1.58;;
69081;SDS011;56184;51.986;5.760;2023-02-24T14:20:29;9.32;;;1.75;;
69081;SDS011;56184;51.986;5.760;2023-02-24T14:22:57;4.88;;;1.40;;
69081;SDS011;56184;51.986;5.760;2023-02-24T14:25:25;6.00;;;1.27;;
69081;SDS011;56184;51.986;5.760;2023-02-24T14:27:54;8.90;;;1.70;;
69081;SDS011;56184;51.986;5.760;2023-02-24T14:32:58;6.72;;;1.27;;
69081;SDS011;56184;51.986;5.760;2023-02-24T14:35:35;13.00;;;2.72;;
69081;SDS011;56184;51.986;5.760;2023-02-24T14:38:05;11.10;;;1.50;;
69081;SDS011;56184;51.986;5.760;2023-02-24T14:40:50;8.55;;;2.28;;
69081;SDS011;56184;51.986;5.760;2023-02-24T14:43:19;6.43;;;1.60;;
69081;SDS011;56184;51.986;5.760;2023-02-24T14:45:48;11.05;;;1.95;;
69081;SDS011;56184;51.986;5.760;2023-02-24T14:48:19;5.07;;;1.00;;
69081;SDS011;56184;51.986;5.760;2023-02-24T14:50:47;8.40;;;2.10;;
69081;SDS011;56184;51.986;5.760;2023-02-24T14:53:17;11.02;;;1.63;;
69081;SDS011;56184;51.986;5.760;2023-02-24T14:55:47;11.05;;;2.03;;
69081;SDS011;56184;51.986;5.760;2023-02-24T14:58:18;10.57;;;1.90;;
69081;SDS011;56184;51.986;5.760;2023-02-24T15:00:48;8.63;;;1.73;;
69081;SDS011;56184;51.986;5.760;2023-02-24T15:05:59;13.00;;;1.90;;
69081;SDS011;56184;51.986;5.760;2023-02-24T15:08:34;14.20;;;2.00;;
69081;SDS011;56184;51.986;5.760;2023-02-24T15:11:27;11.00;;;2.15;;
69081;SDS011;56184;51.986;5.760;2023-02-24T15:14:00;6.82;;;1.27;;
69081;SDS011;56184;51.986;5.760;2023-02-24T15:16:32;8.80;;;1.33;;
69081;SDS011;56184;51.986;5.760;2023-02-24T15:24:46;10.77;;;1.80;;
69081;SDS011;56184;51.986;5.760;2023-02-24T15:29:38;10.20;;;1.30;;
69081;SDS011;56184;51.986;5.760;2023-02-24T15:32:09;11.23;;;1.83;;
69081;SDS011;56184;51.986;5.760;2023-02-24T15:34:50;9.90;;;1.60;;
69081;SDS011;56184;51.986;5.760;2023-02-24T15:37:21;8.68;;;1.42;;
69081;SDS011;56184;51.986;5.760;2023-02-24T15:39:49;9.32;;;1.75;;
69081;SDS011;56184;51.986;5.760;2023-02-24T15:42:22;11.05;;;1.35;;
69081;SDS011;56184;51.986;5.760;2023-02-24T15:44:56;9.77;;;1.70;;
69081;SDS011;56184;51.986;5.760;2023-02-24T15:47:29;6.50;;;1.27;;
69081;SDS011;56184;51.986;5.760;2023-02-24T15:50:04;7.25;;;1.40;;
69081;SDS011;56184;51.986;5.760;2023-02-24T15:52:30;8.10;;;1.30;;
69081;SDS011;56184;51.986;5.760;2023-02-24T15:54:56;5.57;;;1.23;;
69081;SDS011;56184;51.986;5.760;2023-02-24T15:57:24;6.93;;;1.30;;
69081;SDS011;56184;51.986;5.760;2023-02-24T15:59:51;12.50;;;1.52;;
69081;SDS011;56184;51.986;5.760;2023-02-24T16:02:21;8.20;;;1.25;;
69081;SDS011;56184;51.986;5.760;2023-02-24T16:04:48;6.57;;;1.05;;
69081;SDS011;56184;51.986;5.760;2023-02-24T16:07:19;16.20;;;4.60;;
69081;SDS011;56184;51.986;5.760;2023-02-24T16:09:54;22.35;;;9.95;;
69081;SDS011;56184;51.986;5.760;2023-02-24T16:12:23;19.05;;;9.30;;
69081;SDS011;56184;51.986;5.760;2023-02-24T16:14:55;19.42;;;10.68;;
69081;SDS011;56184;51.986;5.760;2023-02-24T16:17:31;5.20;;;1.20;;
69081;SDS011;56184;51.986;5.760;2023-02-24T16:20:03;4.93;;;1.05;;
69081;SDS011;56184;51.986;5.760;2023-02-24T16:22:33;2.92;;;0.77;;
69081;SDS011;56184;51.986;5.760;2023-02-24T16:24:59;3.70;;;0.70;;
69081;SDS011;56184;51.986;5.760;2023-02-24T16:27:25;2.30;;;0.70;;
69081;SDS011;56184;51.986;5.760;2023-02-24T16:29:53;5.32;;;0.93;;
69081;SDS011;56184;51.986;5.760;2023-02-24T16:32:20;3.58;;;0.50;;
69081;SDS011;56184;51.986;5.760;2023-02-24T16:34:47;1.88;;;0.60;;
69081;SDS011;56184;51.986;5.760;2023-02-24T16:37:18;3.97;;;0.82;;
69081;SDS011;56184;51.986;5.760;2023-02-24T16:39:46;3.75;;;0.82;;
69081;SDS011;56184;51.986;5.760;2023-02-24T16:42:13;1.88;;;0.70;;
69081;SDS011;56184;51.986;5.760;2023-02-24T16:44:40;9.32;;;0.98;;
69081;SDS011;56184;51.986;5.760;2023-02-24T16:47:06;4.07;;;0.80;;
69081;SDS011;56184;51.986;5.760;2023-02-24T16:49:32;4.90;;;0.93;;
69081;SDS011;56184;51.986;5.760;2023-02-24T16:51:58;5.45;;;1.00;;
69081;SDS011;56184;51.986;5.760;2023-02-24T16:54:24;4.97;;;0.70;;
69081;SDS011;56184;51.986;5.760;2023-02-24T16:56:53;3.60;;;0.93;;
69081;SDS011;56184;51.986;5.760;2023-02-24T16:59:20;3.83;;;1.02;;
69081;SDS011;56184;51.986;5.760;2023-02-24T17:01:46;5.60;;;1.00;;
69081;SDS011;56184;51.986;5.760;2023-02-24T17:04:12;5.20;;;1.00;;
69081;SDS011;56184;51.986;5.760;2023-02-24T17:06:38;8.02;;;1.30;;
69081;SDS011;56184;51.986;5.760;2023-02-24T17:09:04;5.18;;;1.00;;
69081;SDS011;56184;51.986;5.760;2023-02-24T17:11:30;6.13;;;0.75;;
69081;SDS011;56184;51.986;5.760;2023-02-24T17:13:57;6.97;;;1.00;;
69081;SDS011;56184;51.986;5.760;2023-02-24T17:16:23;6.85;;;1.20;;
69081;SDS011;56184;51.986;5.760;2023-02-24T17:18:49;9.02;;;1.70;;
69081;SDS011;56184;51.986;5.760;2023-02-24T17:21:14;9.40;;;1.50;;
69081;SDS011;56184;51.986;5.760;2023-02-24T17:23:42;6.55;;;1.20;;
69081;SDS011;56184;51.986;5.760;2023-02-24T17:26:09;11.15;;;1.20;;
69081;SDS011;56184;51.986;5.760;2023-02-24T17:28:38;7.60;;;1.00;;
69081;SDS011;56184;51.986;5.760;2023-02-24T17:31:04;5.60;;;1.15;;
69081;SDS011;56184;51.986;5.760;2023-02-24T17:33:31;11.43;;;1.80;;